sensor_id;sensor_type;location;lat;lon;timestamp;P1;durP1;ratioP1;P2;durP2;ratioP2
24173;SDS011;12324;48.146;11.502;2023-04-25T00:00:02;5.78;;;2.75;;
24173;SDS011;12324;48.146;11.502;2023-04-25T00:02:33;8.13;;;3.38;;
24173;SDS011;12324;48.146;11.502;2023-04-25T00:05:01;5.50;;;2.95;;
24173;SDS011;12324;48.146;11.502;2023-04-25T00:07:31;10.85;;;3.10;;
24173;SDS011;12324;48.146;11.502;2023-04-25T00:09:58;6.40;;;2.72;;
24173;SDS011;12324;48.146;11.502;2023-04-25T00:12:25;6.07;;;2.88;;
24173;SDS011;12324;48.146;11.502;2023-04-25T00:14:54;8.50;;;3.05;;
24173;SDS011;12324;48.146;11.502;2023-04-25T00:17:23;6.50;;;2.92;;
24173;SDS011;12324;48.146;11.502;2023-04-25T00:19:50;10.00;;;3.10;;
24173;SDS011;12324;48.146;11.502;2023-04-25T00:22:17;5.40;;;3.22;;
24173;SDS011;12324;48.146;11.502;2023-04-25T00:24:44;8.63;;;3.03;;
24173;SDS011;12324;48.146;11.502;2023-04-25T00:27:11;4.95;;;2.70;;
24173;SDS011;12324;48.146;11.502;2023-04-25T00:29:37;4.90;;;2.90;;
24173;SDS011;12324;48.146;11.502;2023-04-25T00:32:04;8.82;;;3.10;;
24173;SDS011;12324;48.146;11.502;2023-04-25T00:34:31;6.95;;;2.75;;
24173;SDS011;12324;48.146;11.502;2023-04-25T00:36:57;6.90;;;2.83;;
24173;SDS011;12324;48.146;11.502;2023-04-25T00:39:24;9.70;;;3.10;;
24173;SDS011;12324;48.146;11.502;2023-04-25T00:41:51;6.40;;;3.38;;
24173;SDS011;12324;48.146;11.502;2023-04-25T00:44:20;14.48;;;3.65;;
24173;SDS011;12324;48.146;11.502;2023-04-25T00:46:48;5.55;;;2.70;;
24173;SDS011;12324;48.146;11.502;2023-04-25T00:49:15;6.40;;;3.00;;
24173;SDS011;12324;48.146;11.502;2023-04-25T00:51:43;7.28;;;2.90;;
24173;SDS011;12324;48.146;11.502;2023-04-25T00:54:11;7.45;;;3.22;;
24173;SDS011;12324;48.146;11.502;2023-04-25T00:56:39;6.05;;;3.22;;
24173;SDS011;12324;48.146;11.502;2023-04-25T00:59:05;5.78;;;2.90;;
24173;SDS011;12324;48.146;11.502;2023-04-25T01:01:32;7.43;;;2.75;;
24173;SDS011;12324;48.146;11.502;2023-04-25T01:03:59;6.55;;;2.83;;
24173;SDS011;12324;48.146;11.502;2023-04-25T01:06:27;5.05;;;2.95;;
24173;SDS011;12324;48.146;11.502;2023-04-25T01:08:54;7.00;;;3.47;;
24173;SDS011;12324;48.146;11.502;2023-04-25T01:11:21;5.47;;;2.95;;
24173;SDS011;12324;48.146;11.502;2023-04-25T01:13:47;6.40;;;3.30;;
24173;SDS011;12324;48.146;11.502;2023-04-25T01:16:15;6.35;;;2.97;;
24173;SDS011;12324;48.146;11.502;2023-04-25T01:18:41;10.05;;;3.85;;
24173;SDS011;12324;48.146;11.502;2023-04-25T01:21:10;6.63;;;3.30;;
24173;SDS011;12324;48.146;11.502;2023-04-25T01:23:38;5.50;;;2.65;;
24173;SDS011;12324;48.146;11.502;2023-04-25T01:26:06;8.85;;;3.55;;
24173;SDS011;12324;48.146;11.502;2023-04-25T01:28:35;6.50;;;3.15;;
24173;SDS011;12324;48.146;11.502;2023-04-25T01:31:03;6.88;;;3.15;;
24173;SDS011;12324;48.146;11.502;2023-04-25T01:33:31;6.00;;;3.17;;
24173;SDS011;12324;48.146;11.502;2023-04-25T01:35:58;8.27;;;3.17;;
24173;SDS011;12324;48.146;11.502;2023-04-25T01:38:26;5.95;;;3.22;;
24173;SDS011;12324;48.146;11.502;2023-04-25T01:40:53;4.80;;;2.55;;
24173;SDS011;12324;48.146;11.502;2023-04-25T01:43:20;7.45;;;3.20;;
24173;SDS011;12324;48.146;11.502;2023-04-25T01:45:47;5.85;;;3.13;;
24173;SDS011;12324;48.146;11.502;2023-04-25T01:48:15;8.55;;;3.47;;
24173;SDS011;12324;48.146;11.502;2023-04-25T01:50:43;6.82;;;2.88;;
24173;SDS011;12324;48.146;11.502;2023-04-25T01:53:10;7.00;;;3.42;;
24173;SDS011;12324;48.146;11.502;2023-04-25T01:55:39;6.47;;;3.03;;
24173;SDS011;12324;48.146;11.502;2023-04-25T01:58:06;9.02;;;3.10;;
24173;SDS011;12324;48.146;11.502;2023-04-25T02:00:36;6.82;;;3.17;;
24173;SDS011;12324;48.146;11.502;2023-04-25T02:03:05;7.93;;;3.53;;
24173;SDS011;12324;48.146;11.502;2023-04-25T02:05:38;5.50;;;2.78;;
24173;SDS011;12324;48.146;11.502;2023-04-25T02:08:06;6.00;;;3.10;;
24173;SDS011;12324;48.146;11.502;2023-04-25T02:10:34;6.13;;;2.92;;
24173;SDS011;12324;48.146;11.502;2023-04-25T02:13:01;9.10;;;3.10;;
24173;SDS011;12324;48.146;11.502;2023-04-25T02:15:28;5.28;;;2.83;;
24173;SDS011;12324;48.146;11.502;2023-04-25T02:17:55;5.90;;;2.97;;
24173;SDS011;12324;48.146;11.502;2023-04-25T02:20:22;7.97;;;2.85;;
24173;SDS011;12324;48.146;11.502;2023-04-25T02:22:50;6.65;;;3.30;;
24173;SDS011;12324;48.146;11.502;2023-04-25T02:25:17;6.47;;;2.92;;
24173;SDS011;12324;48.146;11.502;2023-04-25T02:27:48;5.68;;;3.00;;
24173;SDS011;12324;48.146;11.502;2023-04-25T02:30:18;4.90;;;2.90;;
24173;SDS011;12324;48.146;11.502;2023-04-25T02:32:45;9.98;;;3.20;;
24173;SDS011;12324;48.146;11.502;2023-04-25T02:35:12;8.48;;;3.13;;
24173;SDS011;12324;48.146;11.502;2023-04-25T02:37:39;8.10;;;2.95;;
24173;SDS011;12324;48.146;11.502;2023-04-25T02:40:06;9.57;;;3.42;;
24173;SDS011;12324;48.146;11.502;2023-04-25T02:42:34;8.55;;;3.08;;
24173;SDS011;12324;48.146;11.502;2023-04-25T02:45:01;6.78;;;3.17;;
24173;SDS011;12324;48.146;11.502;2023-04-25T02:47:28;4.25;;;2.83;;
24173;SDS011;12324;48.146;11.502;2023-04-25T02:49:55;4.70;;;2.97;;
24173;SDS011;12324;48.146;11.502;2023-04-25T02:52:22;7.95;;;3.30;;
24173;SDS011;12324;48.146;11.502;2023-04-25T02:54:49;6.47;;;3.03;;
24173;SDS011;12324;48.146;11.502;2023-04-25T02:57:15;8.90;;;3.20;;
24173;SDS011;12324;48.146;11.502;2023-04-25T02:59:42;5.95;;;2.92;;
24173;SDS011;12324;48.146;11.502;2023-04-25T03:02:09;5.88;;;2.90;;
24173;SDS011;12324;48.146;11.502;2023-04-25T03:04:36;7.50;;;2.95;;
24173;SDS011;12324;48.146;11.502;2023-04-25T03:07:03;5.18;;;2.60;;
24173;SDS011;12324;48.146;11.502;2023-04-25T03:09:31;6.60;;;2.65;;
24173;SDS011;12324;48.146;11.502;2023-04-25T03:11:57;7.88;;;3.30;;
24173;SDS011;12324;48.146;11.502;2023-04-25T03:14:24;8.43;;;3.55;;
24173;SDS011;12324;48.146;11.502;2023-04-25T03:16:51;5.10;;;2.60;;
24173;SDS011;12324;48.146;11.502;2023-04-25T03:19:18;5.80;;;2.75;;
24173;SDS011;12324;48.146;11.502;2023-04-25T03:21:44;9.25;;;3.53;;
24173;SDS011;12324;48.146;11.502;2023-04-25T03:24:11;7.43;;;3.20;;
24173;SDS011;12324;48.146;11.502;2023-04-25T03:26:38;8.90;;;3.22;;
24173;SDS011;12324;48.146;11.502;2023-04-25T03:29:05;3.85;;;2.38;;
24173;SDS011;12324;48.146;11.502;2023-04-25T03:31:31;6.57;;;2.78;;
24173;SDS011;12324;48.146;11.502;2023-04-25T03:33:58;7.22;;;2.88;;
24173;SDS011;12324;48.146;11.502;2023-04-25T03:36:25;6.55;;;2.97;;
24173;SDS011;12324;48.146;11.502;2023-04-25T03:38:51;5.03;;;2.50;;
24173;SDS011;12324;48.146;11.502;2023-04-25T03:41:18;5.53;;;2.38;;
24173;SDS011;12324;48.146;11.502;2023-04-25T03:43:45;7.07;;;2.60;;
24173;SDS011;12324;48.146;11.502;2023-04-25T03:46:11;4.15;;;2.55;;
24173;SDS011;12324;48.146;11.502;2023-04-25T03:48:38;8.15;;;3.00;;
24173;SDS011;12324;48.146;11.502;2023-04-25T03:51:05;8.57;;;3.08;;
24173;SDS011;12324;48.146;11.502;2023-04-25T03:53:31;4.68;;;2.40;;
24173;SDS011;12324;48.146;11.502;2023-04-25T03:55:58;3.88;;;2.22;;
24173;SDS011;12324;48.146;11.502;2023-04-25T03:58:25;8.63;;;3.15;;
24173;SDS011;12324;48.146;11.502;2023-04-25T04:00:52;6.35;;;2.38;;
24173;SDS011;12324;48.146;11.502;2023-04-25T04:03:18;5.78;;;2.20;;
24173;SDS011;12324;48.146;11.502;2023-04-25T04:05:46;4.47;;;2.55;;
24173;SDS011;12324;48.146;11.502;2023-04-25T04:08:13;6.68;;;2.95;;
24173;SDS011;12324;48.146;11.502;2023-04-25T04:10:40;10.57;;;2.80;;
24173;SDS011;12324;48.146;11.502;2023-04-25T04:13:07;7.63;;;2.47;;
24173;SDS011;12324;48.146;11.502;2023-04-25T04:15:34;4.10;;;2.47;;
24173;SDS011;12324;48.146;11.502;2023-04-25T04:18:00;5.03;;;2.30;;
24173;SDS011;12324;48.146;11.502;2023-04-25T04:20:30;7.03;;;3.58;;
24173;SDS011;12324;48.146;11.502;2023-04-25T04:22:56;5.30;;;2.50;;
24173;SDS011;12324;48.146;11.502;2023-04-25T04:25:23;5.18;;;2.47;;
24173;SDS011;12324;48.146;11.502;2023-04-25T04:27:50;6.68;;;2.80;;
24173;SDS011;12324;48.146;11.502;2023-04-25T04:30:23;13.85;;;2.70;;
24173;SDS011;12324;48.146;11.502;2023-04-25T04:32:50;5.57;;;2.67;;
24173;SDS011;12324;48.146;11.502;2023-04-25T04:35:17;8.90;;;3.15;;
24173;SDS011;12324;48.146;11.502;2023-04-25T04:37:44;5.15;;;2.58;;
24173;SDS011;12324;48.146;11.502;2023-04-25T04:40:11;6.80;;;2.83;;
24173;SDS011;12324;48.146;11.502;2023-04-25T04:42:38;5.43;;;2.50;;
24173;SDS011;12324;48.146;11.502;2023-04-25T04:45:05;4.90;;;2.42;;
24173;SDS011;12324;48.146;11.502;2023-04-25T04:47:32;7.97;;;3.03;;
24173;SDS011;12324;48.146;11.502;2023-04-25T04:50:00;5.82;;;2.60;;
24173;SDS011;12324;48.146;11.502;2023-04-25T04:52:26;5.53;;;3.00;;
24173;SDS011;12324;48.146;11.502;2023-04-25T04:54:53;7.75;;;3.00;;
24173;SDS011;12324;48.146;11.502;2023-04-25T04:57:20;4.68;;;2.80;;
24173;SDS011;12324;48.146;11.502;2023-04-25T04:59:46;8.68;;;2.75;;
24173;SDS011;12324;48.146;11.502;2023-04-25T05:02:13;5.35;;;2.70;;
24173;SDS011;12324;48.146;11.502;2023-04-25T05:04:40;6.65;;;2.95;;
24173;SDS011;12324;48.146;11.502;2023-04-25T05:07:06;5.30;;;2.72;;
24173;SDS011;12324;48.146;11.502;2023-04-25T05:09:33;6.07;;;2.88;;
24173;SDS011;12324;48.146;11.502;2023-04-25T05:12:00;4.43;;;2.70;;
24173;SDS011;12324;48.146;11.502;2023-04-25T05:14:27;7.28;;;3.28;;
24173;SDS011;12324;48.146;11.502;2023-04-25T05:16:54;14.05;;;4.18;;
24173;SDS011;12324;48.146;11.502;2023-04-25T05:19:21;6.13;;;2.58;;
24173;SDS011;12324;48.146;11.502;2023-04-25T05:21:47;8.18;;;3.17;;
24173;SDS011;12324;48.146;11.502;2023-04-25T05:24:14;6.15;;;3.10;;
24173;SDS011;12324;48.146;11.502;2023-04-25T05:26:41;10.77;;;3.15;;
24173;SDS011;12324;48.146;11.502;2023-04-25T05:29:07;7.57;;;3.10;;
24173;SDS011;12324;48.146;11.502;2023-04-25T05:31:35;9.32;;;3.63;;
24173;SDS011;12324;48.146;11.502;2023-04-25T05:34:02;7.95;;;3.30;;
24173;SDS011;12324;48.146;11.502;2023-04-25T05:36:29;10.57;;;3.53;;
24173;SDS011;12324;48.146;11.502;2023-04-25T05:38:56;7.60;;;3.15;;
24173;SDS011;12324;48.146;11.502;2023-04-25T05:41:23;7.72;;;3.22;;
24173;SDS011;12324;48.146;11.502;2023-04-25T05:43:50;9.00;;;3.25;;
24173;SDS011;12324;48.146;11.502;2023-04-25T05:46:18;9.80;;;3.45;;
24173;SDS011;12324;48.146;11.502;2023-04-25T05:48:46;7.55;;;3.40;;
24173;SDS011;12324;48.146;11.502;2023-04-25T05:51:12;5.40;;;3.08;;
24173;SDS011;12324;48.146;11.502;2023-04-25T05:53:39;6.13;;;2.85;;
24173;SDS011;12324;48.146;11.502;2023-04-25T05:56:05;7.55;;;3.08;;
24173;SDS011;12324;48.146;11.502;2023-04-25T05:58:32;8.20;;;3.05;;
24173;SDS011;12324;48.146;11.502;2023-04-25T06:00:59;9.90;;;4.35;;
24173;SDS011;12324;48.146;11.502;2023-04-25T06:03:26;10.27;;;3.95;;
24173;SDS011;12324;48.146;11.502;2023-04-25T06:05:53;9.48;;;3.45;;
24173;SDS011;12324;48.146;11.502;2023-04-25T06:08:20;8.07;;;3.72;;
24173;SDS011;12324;48.146;11.502;2023-04-25T06:10:47;8.98;;;3.83;;
24173;SDS011;12324;48.146;11.502;2023-04-25T06:13:14;14.07;;;5.07;;
24173;SDS011;12324;48.146;11.502;2023-04-25T06:15:41;11.93;;;4.40;;
24173;SDS011;12324;48.146;11.502;2023-04-25T06:18:08;9.73;;;4.47;;
24173;SDS011;12324;48.146;11.502;2023-04-25T06:20:35;11.20;;;4.60;;
24173;SDS011;12324;48.146;11.502;2023-04-25T06:23:01;11.50;;;4.63;;
24173;SDS011;12324;48.146;11.502;2023-04-25T06:25:28;9.90;;;4.38;;
24173;SDS011;12324;48.146;11.502;2023-04-25T06:27:55;9.63;;;4.70;;
24173;SDS011;12324;48.146;11.502;2023-04-25T06:30:21;10.60;;;4.22;;
24173;SDS011;12324;48.146;11.502;2023-04-25T06:32:51;10.55;;;4.30;;
24173;SDS011;12324;48.146;11.502;2023-04-25T06:35:19;10.43;;;4.72;;
24173;SDS011;12324;48.146;11.502;2023-04-25T06:37:46;14.00;;;5.72;;
24173;SDS011;12324;48.146;11.502;2023-04-25T06:40:13;12.63;;;4.95;;
24173;SDS011;12324;48.146;11.502;2023-04-25T06:42:40;10.48;;;4.70;;
24173;SDS011;12324;48.146;11.502;2023-04-25T06:45:07;9.85;;;4.70;;
24173;SDS011;12324;48.146;11.502;2023-04-25T06:47:34;12.20;;;4.60;;
24173;SDS011;12324;48.146;11.502;2023-04-25T06:50:01;12.32;;;5.65;;
24173;SDS011;12324;48.146;11.502;2023-04-25T06:52:28;12.20;;;5.20;;
24173;SDS011;12324;48.146;11.502;2023-04-25T06:54:54;14.45;;;5.10;;
24173;SDS011;12324;48.146;11.502;2023-04-25T06:57:21;9.82;;;4.68;;
24173;SDS011;12324;48.146;11.502;2023-04-25T06:59:48;14.60;;;4.95;;
24173;SDS011;12324;48.146;11.502;2023-04-25T07:02:14;9.50;;;4.18;;
24173;SDS011;12324;48.146;11.502;2023-04-25T07:04:41;9.13;;;4.07;;
24173;SDS011;12324;48.146;11.502;2023-04-25T07:07:08;10.65;;;4.60;;
24173;SDS011;12324;48.146;11.502;2023-04-25T07:09:34;10.80;;;4.47;;
24173;SDS011;12324;48.146;11.502;2023-04-25T07:12:01;11.43;;;4.32;;
24173;SDS011;12324;48.146;11.502;2023-04-25T07:14:28;9.52;;;3.80;;
24173;SDS011;12324;48.146;11.502;2023-04-25T07:16:55;13.95;;;5.20;;
24173;SDS011;12324;48.146;11.502;2023-04-25T07:19:23;9.77;;;4.20;;
24173;SDS011;12324;48.146;11.502;2023-04-25T07:21:52;9.85;;;4.22;;
24173;SDS011;12324;48.146;11.502;2023-04-25T07:24:19;10.95;;;4.18;;
24173;SDS011;12324;48.146;11.502;2023-04-25T07:26:47;11.45;;;4.35;;
24173;SDS011;12324;48.146;11.502;2023-04-25T07:29:14;7.90;;;3.50;;
24173;SDS011;12324;48.146;11.502;2023-04-25T07:31:41;13.05;;;3.90;;
24173;SDS011;12324;48.146;11.502;2023-04-25T07:34:08;8.40;;;3.55;;
24173;SDS011;12324;48.146;11.502;2023-04-25T07:36:36;16.15;;;4.55;;
24173;SDS011;12324;48.146;11.502;2023-04-25T07:39:03;11.45;;;3.92;;
24173;SDS011;12324;48.146;11.502;2023-04-25T07:41:32;11.82;;;3.72;;
24173;SDS011;12324;48.146;11.502;2023-04-25T07:44:00;8.63;;;4.22;;
24173;SDS011;12324;48.146;11.502;2023-04-25T07:46:28;11.68;;;4.47;;
24173;SDS011;12324;48.146;11.502;2023-04-25T07:48:55;12.35;;;4.28;;
24173;SDS011;12324;48.146;11.502;2023-04-25T07:51:22;10.70;;;4.60;;
24173;SDS011;12324;48.146;11.502;2023-04-25T07:53:49;9.80;;;4.35;;
24173;SDS011;12324;48.146;11.502;2023-04-25T07:56:16;11.05;;;4.50;;
24173;SDS011;12324;48.146;11.502;2023-04-25T07:58:42;8.60;;;4.20;;
24173;SDS011;12324;48.146;11.502;2023-04-25T08:01:10;9.02;;;4.57;;
24173;SDS011;12324;48.146;11.502;2023-04-25T08:03:37;17.80;;;4.60;;
24173;SDS011;12324;48.146;11.502;2023-04-25T08:06:04;11.52;;;4.45;;
24173;SDS011;12324;48.146;11.502;2023-04-25T08:08:33;10.40;;;3.80;;
24173;SDS011;12324;48.146;11.502;2023-04-25T08:11:00;8.57;;;3.88;;
24173;SDS011;12324;48.146;11.502;2023-04-25T08:13:27;11.52;;;3.90;;
24173;SDS011;12324;48.146;11.502;2023-04-25T08:15:54;10.13;;;4.30;;
24173;SDS011;12324;48.146;11.502;2023-04-25T08:18:20;9.90;;;4.00;;
24173;SDS011;12324;48.146;11.502;2023-04-25T08:20:47;8.95;;;3.92;;
24173;SDS011;12324;48.146;11.502;2023-04-25T08:23:14;9.00;;;3.67;;
24173;SDS011;12324;48.146;11.502;2023-04-25T08:25:41;7.25;;;3.22;;
24173;SDS011;12324;48.146;11.502;2023-04-25T08:28:07;6.28;;;3.13;;
24173;SDS011;12324;48.146;11.502;2023-04-25T08:30:34;7.55;;;3.08;;
24173;SDS011;12324;48.146;11.502;2023-04-25T08:33:01;6.05;;;3.17;;
24173;SDS011;12324;48.146;11.502;2023-04-25T08:35:28;9.25;;;3.30;;
24173;SDS011;12324;48.146;11.502;2023-04-25T08:37:54;6.00;;;2.60;;
24173;SDS011;12324;48.146;11.502;2023-04-25T08:40:22;9.45;;;2.83;;
24173;SDS011;12324;48.146;11.502;2023-04-25T08:42:53;8.15;;;2.88;;
24173;SDS011;12324;48.146;11.502;2023-04-25T08:45:20;6.35;;;2.50;;
24173;SDS011;12324;48.146;11.502;2023-04-25T08:47:47;5.53;;;2.30;;
24173;SDS011;12324;48.146;11.502;2023-04-25T08:50:17;5.72;;;2.10;;
24173;SDS011;12324;48.146;11.502;2023-04-25T08:52:46;9.82;;;3.10;;
24173;SDS011;12324;48.146;11.502;2023-04-25T08:55:16;6.43;;;2.40;;
24173;SDS011;12324;48.146;11.502;2023-04-25T08:57:43;8.70;;;2.58;;
24173;SDS011;12324;48.146;11.502;2023-04-25T09:00:11;7.95;;;2.80;;
24173;SDS011;12324;48.146;11.502;2023-04-25T09:02:39;6.57;;;3.15;;
24173;SDS011;12324;48.146;11.502;2023-04-25T09:05:06;5.13;;;2.08;;
24173;SDS011;12324;48.146;11.502;2023-04-25T09:07:35;4.28;;;2.45;;
24173;SDS011;12324;48.146;11.502;2023-04-25T09:10:02;7.50;;;2.22;;
24173;SDS011;12324;48.146;11.502;2023-04-25T09:12:29;5.50;;;2.22;;
24173;SDS011;12324;48.146;11.502;2023-04-25T09:15:09;5.28;;;2.28;;
24173;SDS011;12324;48.146;11.502;2023-04-25T09:17:37;6.28;;;1.98;;
24173;SDS011;12324;48.146;11.502;2023-04-25T09:20:08;3.33;;;1.63;;
24173;SDS011;12324;48.146;11.502;2023-04-25T09:22:37;6.25;;;2.28;;
24173;SDS011;12324;48.146;11.502;2023-04-25T09:25:07;6.88;;;2.33;;
24173;SDS011;12324;48.146;11.502;2023-04-25T09:27:35;5.07;;;2.03;;
24173;SDS011;12324;48.146;11.502;2023-04-25T09:30:02;6.47;;;2.30;;
24173;SDS011;12324;48.146;11.502;2023-04-25T09:32:29;5.13;;;1.80;;
24173;SDS011;12324;48.146;11.502;2023-04-25T09:34:57;4.00;;;2.20;;
24173;SDS011;12324;48.146;11.502;2023-04-25T09:37:28;6.03;;;2.03;;
24173;SDS011;12324;48.146;11.502;2023-04-25T09:39:56;3.85;;;2.10;;
24173;SDS011;12324;48.146;11.502;2023-04-25T09:42:25;10.73;;;2.38;;
24173;SDS011;12324;48.146;11.502;2023-04-25T09:44:53;4.35;;;2.17;;
24173;SDS011;12324;48.146;11.502;2023-04-25T09:47:22;4.97;;;2.20;;
24173;SDS011;12324;48.146;11.502;2023-04-25T09:49:50;5.13;;;2.15;;
24173;SDS011;12324;48.146;11.502;2023-04-25T09:52:19;7.13;;;2.33;;
24173;SDS011;12324;48.146;11.502;2023-04-25T09:54:50;7.32;;;2.65;;
24173;SDS011;12324;48.146;11.502;2023-04-25T09:57:18;7.40;;;2.58;;
24173;SDS011;12324;48.146;11.502;2023-04-25T09:59:53;4.97;;;2.13;;
24173;SDS011;12324;48.146;11.502;2023-04-25T10:02:21;5.68;;;2.70;;
24173;SDS011;12324;48.146;11.502;2023-04-25T10:04:50;7.10;;;2.50;;
24173;SDS011;12324;48.146;11.502;2023-04-25T10:07:25;7.15;;;2.40;;
24173;SDS011;12324;48.146;11.502;2023-04-25T10:09:59;7.80;;;2.30;;
24173;SDS011;12324;48.146;11.502;2023-04-25T10:12:29;7.40;;;2.50;;
24173;SDS011;12324;48.146;11.502;2023-04-25T10:15:00;7.10;;;2.47;;
24173;SDS011;12324;48.146;11.502;2023-04-25T10:17:27;6.05;;;2.17;;
24173;SDS011;12324;48.146;11.502;2023-04-25T10:19:55;4.82;;;2.45;;
24173;SDS011;12324;48.146;11.502;2023-04-25T10:24:52;8.88;;;2.30;;
24173;SDS011;12324;48.146;11.502;2023-04-25T10:27:20;5.45;;;2.35;;
24173;SDS011;12324;48.146;11.502;2023-04-25T10:29:58;7.18;;;2.42;;
24173;SDS011;12324;48.146;11.502;2023-04-25T10:32:26;3.28;;;1.80;;
24173;SDS011;12324;48.146;11.502;2023-04-25T10:34:56;3.40;;;1.73;;
24173;SDS011;12324;48.146;11.502;2023-04-25T10:37:23;3.38;;;1.65;;
24173;SDS011;12324;48.146;11.502;2023-04-25T10:39:50;4.90;;;1.77;;
24173;SDS011;12324;48.146;11.502;2023-04-25T10:42:19;5.85;;;1.85;;
24173;SDS011;12324;48.146;11.502;2023-04-25T10:45:00;4.57;;;1.85;;
24173;SDS011;12324;48.146;11.502;2023-04-25T10:47:35;5.05;;;1.77;;
24173;SDS011;12324;48.146;11.502;2023-04-25T10:50:07;2.10;;;1.50;;
24173;SDS011;12324;48.146;11.502;2023-04-25T10:52:34;5.95;;;2.13;;
24173;SDS011;12324;48.146;11.502;2023-04-25T10:55:04;7.43;;;2.15;;
24173;SDS011;12324;48.146;11.502;2023-04-25T11:00:11;3.55;;;2.15;;
24173;SDS011;12324;48.146;11.502;2023-04-25T11:02:45;2.53;;;1.90;;
24173;SDS011;12324;48.146;11.502;2023-04-25T11:05:31;3.63;;;2.00;;
24173;SDS011;12324;48.146;11.502;2023-04-25T11:08:22;5.00;;;1.98;;
24173;SDS011;12324;48.146;11.502;2023-04-25T11:11:14;5.78;;;2.00;;
24173;SDS011;12324;48.146;11.502;2023-04-25T11:13:48;3.33;;;1.80;;
24173;SDS011;12324;48.146;11.502;2023-04-25T11:16:16;3.47;;;1.50;;
24173;SDS011;12324;48.146;11.502;2023-04-25T11:18:53;3.72;;;1.63;;
24173;SDS011;12324;48.146;11.502;2023-04-25T11:21:19;3.80;;;1.90;;
24173;SDS011;12324;48.146;11.502;2023-04-25T11:23:46;7.28;;;1.67;;
24173;SDS011;12324;48.146;11.502;2023-04-25T11:26:13;1.40;;;1.30;;
24173;SDS011;12324;48.146;11.502;2023-04-25T11:28:41;2.50;;;1.70;;
24173;SDS011;12324;48.146;11.502;2023-04-25T11:31:11;4.90;;;2.05;;
24173;SDS011;12324;48.146;11.502;2023-04-25T11:33:38;5.28;;;2.10;;
24173;SDS011;12324;48.146;11.502;2023-04-25T11:36:06;4.90;;;2.20;;
24173;SDS011;12324;48.146;11.502;2023-04-25T11:38:33;4.10;;;2.00;;
24173;SDS011;12324;48.146;11.502;2023-04-25T11:41:00;4.88;;;2.38;;
24173;SDS011;12324;48.146;11.502;2023-04-25T11:43:28;4.70;;;2.30;;
24173;SDS011;12324;48.146;11.502;2023-04-25T11:45:55;5.38;;;2.30;;
24173;SDS011;12324;48.146;11.502;2023-04-25T11:48:22;5.35;;;2.20;;
24173;SDS011;12324;48.146;11.502;2023-04-25T11:50:51;4.82;;;2.00;;
24173;SDS011;12324;48.146;11.502;2023-04-25T11:53:18;4.43;;;2.30;;
24173;SDS011;12324;48.146;11.502;2023-04-25T11:55:45;4.68;;;1.70;;
24173;SDS011;12324;48.146;11.502;2023-04-25T11:58:12;6.30;;;2.08;;
24173;SDS011;12324;48.146;11.502;2023-04-25T12:00:41;3.05;;;2.15;;
24173;SDS011;12324;48.146;11.502;2023-04-25T12:03:17;2.40;;;1.50;;
24173;SDS011;12324;48.146;11.502;2023-04-25T12:05:45;3.35;;;1.73;;
24173;SDS011;12324;48.146;11.502;2023-04-25T12:08:13;6.55;;;1.95;;
24173;SDS011;12324;48.146;11.502;2023-04-25T12:10:42;4.57;;;1.75;;
24173;SDS011;12324;48.146;11.502;2023-04-25T12:13:23;2.67;;;1.65;;
24173;SDS011;12324;48.146;11.502;2023-04-25T12:15:50;4.18;;;1.88;;
24173;SDS011;12324;48.146;11.502;2023-04-25T12:18:22;2.03;;;1.42;;
24173;SDS011;12324;48.146;11.502;2023-04-25T12:20:52;2.22;;;1.40;;
24173;SDS011;12324;48.146;11.502;2023-04-25T12:23:25;3.08;;;1.25;;
24173;SDS011;12324;48.146;11.502;2023-04-25T12:28:20;2.67;;;1.60;;
24173;SDS011;12324;48.146;11.502;2023-04-25T12:30:56;5.43;;;2.30;;
24173;SDS011;12324;48.146;11.502;2023-04-25T12:33:28;3.67;;;1.92;;
24173;SDS011;12324;48.146;11.502;2023-04-25T12:35:56;3.42;;;1.85;;
24173;SDS011;12324;48.146;11.502;2023-04-25T12:38:25;3.47;;;1.45;;
24173;SDS011;12324;48.146;11.502;2023-04-25T12:40:53;2.38;;;1.45;;
24173;SDS011;12324;48.146;11.502;2023-04-25T12:43:20;3.60;;;1.70;;
24173;SDS011;12324;48.146;11.502;2023-04-25T12:45:51;4.10;;;1.90;;
24173;SDS011;12324;48.146;11.502;2023-04-25T12:48:19;2.60;;;1.75;;
24173;SDS011;12324;48.146;11.502;2023-04-25T12:50:47;3.67;;;2.10;;
24173;SDS011;12324;48.146;11.502;2023-04-25T12:53:16;2.13;;;1.58;;
24173;SDS011;12324;48.146;11.502;2023-04-25T12:55:47;3.45;;;1.85;;
24173;SDS011;12324;48.146;11.502;2023-04-25T12:58:14;2.20;;;1.48;;
24173;SDS011;12324;48.146;11.502;2023-04-25T13:00:42;2.13;;;1.63;;
24173;SDS011;12324;48.146;11.502;2023-04-25T13:03:10;3.42;;;2.13;;
24173;SDS011;12324;48.146;11.502;2023-04-25T13:05:38;2.00;;;1.45;;
24173;SDS011;12324;48.146;11.502;2023-04-25T13:08:05;3.50;;;1.77;;
24173;SDS011;12324;48.146;11.502;2023-04-25T13:10:32;3.78;;;1.83;;
24173;SDS011;12324;48.146;11.502;2023-04-25T13:13:00;3.65;;;1.67;;
24173;SDS011;12324;48.146;11.502;2023-04-25T13:15:27;3.45;;;2.00;;
24173;SDS011;12324;48.146;11.502;2023-04-25T13:17:54;2.95;;;1.73;;
24173;SDS011;12324;48.146;11.502;2023-04-25T13:20:22;3.90;;;1.73;;
24173;SDS011;12324;48.146;11.502;2023-04-25T13:22:49;3.33;;;1.92;;
24173;SDS011;12324;48.146;11.502;2023-04-25T13:25:16;3.42;;;1.92;;
24173;SDS011;12324;48.146;11.502;2023-04-25T13:27:43;2.80;;;2.05;;
24173;SDS011;12324;48.146;11.502;2023-04-25T13:30:10;4.75;;;1.73;;
24173;SDS011;12324;48.146;11.502;2023-04-25T13:32:38;3.67;;;2.17;;
24173;SDS011;12324;48.146;11.502;2023-04-25T13:35:06;4.22;;;1.80;;
24173;SDS011;12324;48.146;11.502;2023-04-25T13:37:36;3.30;;;2.00;;
24173;SDS011;12324;48.146;11.502;2023-04-25T13:40:05;3.42;;;2.05;;
24173;SDS011;12324;48.146;11.502;2023-04-25T13:42:36;5.78;;;2.38;;
24173;SDS011;12324;48.146;11.502;2023-04-25T13:45:04;3.97;;;2.00;;
24173;SDS011;12324;48.146;11.502;2023-04-25T13:47:32;2.35;;;1.70;;
24173;SDS011;12324;48.146;11.502;2023-04-25T13:49:59;2.83;;;1.77;;
24173;SDS011;12324;48.146;11.502;2023-04-25T13:52:26;4.20;;;2.33;;
24173;SDS011;12324;48.146;11.502;2023-04-25T13:54:53;4.18;;;1.85;;
24173;SDS011;12324;48.146;11.502;2023-04-25T13:57:20;3.28;;;1.88;;
24173;SDS011;12324;48.146;11.502;2023-04-25T13:59:46;2.78;;;1.88;;
24173;SDS011;12324;48.146;11.502;2023-04-25T14:02:13;3.55;;;2.40;;
24173;SDS011;12324;48.146;11.502;2023-04-25T14:04:40;4.13;;;2.40;;
24173;SDS011;12324;48.146;11.502;2023-04-25T14:07:08;4.32;;;2.53;;
24173;SDS011;12324;48.146;11.502;2023-04-25T14:09:36;3.85;;;2.53;;
24173;SDS011;12324;48.146;11.502;2023-04-25T14:12:03;4.07;;;2.50;;
24173;SDS011;12324;48.146;11.502;2023-04-25T14:14:30;4.60;;;2.33;;
24173;SDS011;12324;48.146;11.502;2023-04-25T14:16:56;3.13;;;2.15;;
24173;SDS011;12324;48.146;11.502;2023-04-25T14:19:23;2.83;;;1.90;;
24173;SDS011;12324;48.146;11.502;2023-04-25T14:21:50;2.40;;;1.88;;
24173;SDS011;12324;48.146;11.502;2023-04-25T14:24:17;2.95;;;1.60;;
24173;SDS011;12324;48.146;11.502;2023-04-25T14:26:44;2.75;;;1.75;;
24173;SDS011;12324;48.146;11.502;2023-04-25T14:29:11;2.35;;;1.65;;
24173;SDS011;12324;48.146;11.502;2023-04-25T14:31:38;2.78;;;1.73;;
24173;SDS011;12324;48.146;11.502;2023-04-25T14:34:06;3.17;;;1.67;;
24173;SDS011;12324;48.146;11.502;2023-04-25T14:36:35;3.90;;;1.95;;
24173;SDS011;12324;48.146;11.502;2023-04-25T14:39:02;3.70;;;1.98;;
24173;SDS011;12324;48.146;11.502;2023-04-25T14:41:31;2.30;;;1.80;;
24173;SDS011;12324;48.146;11.502;2023-04-25T14:43:57;2.20;;;1.55;;